Wednesday, January 17, 2018, 8:10 AM EST
Back to Local

KSBY, Salisbury-wicomico Cty Reg

Location: Salisbury, MD, United States Lat: 38.333
Local Time: 8:10 AM EST (13:10 GMT) Lon: -75.5
Time Zone: US/Eastern Elev: 52 ft

Show me the last for .
Show Decoded

2018-01-17 07:54 METAR KSBY 171254Z 33010KT 3SM BR OVC009 01/M01 A3030 RMK AO2 SLP264 T00111006 =
2018-01-17 07:33 METAR KSBY 171233Z 31009KT 4SM BR BKN009 OVC090 01/M01 A3031 RMK AO2 T00111006 =
2018-01-17 07:25 METAR KSBY 171225Z 31009KT 5SM BR BKN011 OVC090 01/M01 A3030 RMK AO2 T00111006 =
2018-01-17 06:54 METAR KSBY 171154Z 34009KT 6SM BR FEW019 OVC090 02/M01 A3029 RMK AO2 SLP261
                 T00171006 10022 20011 52009 $ =
2018-01-17 05:54 METAR KSBY 171054Z AUTO 29007KT 8SM OVC017 02/M01 A3030 RMK AO2 SLP262 T00171006
                 =
2018-01-17 05:39 METAR KSBY 171039Z AUTO 31006KT 8SM BKN016 BKN075 OVC090 02/M01 A3028 RMK AO2
                 T00171006 =
2018-01-17 04:54 METAR KSBY 170954Z AUTO 31008KT 9SM OVC090 02/00 A3027 RMK AO2 SLP251 T00220000
                 =
2018-01-17 03:54 METAR KSBY 170854Z AUTO 31004KT 10SM OVC100 02/01 A3027 RMK AO2 SLP252 T00220006
                 55006 =
2018-01-17 02:54 METAR KSBY 170754Z AUTO 30004KT 9SM FEW090 OVC110 02/01 A3027 RMK AO2 SLP252
                 T00220006 =
2018-01-17 01:54 METAR KSBY 170654Z AUTO 31003KT 9SM FEW007 SCT120 02/01 A3027 RMK AO2 SLP253
                 T00220006 =
2018-01-17 01:37 METAR KSBY 170637Z AUTO 31004KT 10SM SCT007 SCT120 02/01 A3027 RMK AO2 T00220006
                 =
2018-01-17 01:13 METAR KSBY 170613Z AUTO 30003KT 10SM BKN007 BKN120 02/01 A3028 RMK AO2 T00220006
                 =
2018-01-17 00:54 METAR KSBY 170554Z AUTO 31003KT 10SM FEW007 BKN120 02/01 A3028 RMK AO2 SLP258
                 T00220011 10050 20022 56007 =
2018-01-17 00:52 METAR KSBY 170552Z AUTO 31003KT 10SM SCT007 BKN120 03/01 A3028 RMK AO2 =
2018-01-16 23:54 METAR KSBY 170454Z AUTO 30004KT 10SM OVC008 03/02 A3030 RMK AO2 SLP263 T00330017
                 400831039 =
2018-01-16 22:54 METAR KSBY 170354Z AUTO 30003KT 10SM OVC005 03/02 A3031 RMK AO2 SLP265 T00330022
                 =
2018-01-16 21:54 METAR KSBY 170254Z 31005KT 10SM OVC006 04/03 A3032 RMK AO2 SLP270 T00440028
                 56010 =
2018-01-16 20:54 METAR KSBY 170154Z 00000KT 10SM OVC007 05/03 A3032 RMK AO2 SLP272 T00500028 =
2018-01-16 19:54 METAR KSBY 170054Z 00000KT 10SM OVC008 05/03 A3033 RMK AO2 SLP275 T00500028 =
2018-01-16 19:33 METAR KSBY 170033Z 00000KT 10SM BKN006 OVC014 05/03 A3034 RMK AO2 T00500028 =
2018-01-16 18:54 METAR KSBY 162354Z 00000KT 10SM OVC012 05/03 A3035 RMK AO2 SLP280 T00500028
                 53001 =
2018-01-16 18:36 METAR KSBY 162336Z 00000KT 10SM OVC014 05/02 A3035 RMK AO2 T00500022 =
2018-01-16 17:54 METAR KSBY 162254Z 04005KT 10SM OVC015 06/03 A3035 RMK AO2 SLP280 T00560028 =
2018-01-16 16:54 METAR KSBY 162154Z 03004KT 10SM BKN019 OVC027 07/03 A3035 RMK AO2 SLP280
                 T00670033 =
2018-01-16 16:03 METAR KSBY 162103Z 06004KT 10SM BKN022 BKN030 08/03 A3034 RMK AO2 T00780033 =
2018-01-16 15:54 METAR KSBY 162054Z 06005KT 10SM SCT024 BKN030 08/03 A3035 RMK AO2 SLP279
                 T00780033 56019 =
2018-01-16 14:54 METAR KSBY 161954Z 07004KT 10SM CLR 08/03 A3035 RMK AO2 SLP281 T00830028 =
2018-01-16 13:54 METAR KSBY 161854Z 00000KT 10SM FEW028 08/ A3038 RMK AO2 SLP289 T0078 $ =
2018-01-16 12:54 METAR KSBY 161754Z 09004KT 10SM CLR 08/ A3040 RMK AO2 SLP299 T0078 10078 21033
                 58024 $ =
2018-01-16 11:54 METAR KSBY 161654Z 07003KT 10SM CLR 07/02 A3043 RMK AO2 SLP308 T00670022 =
2018-01-16 10:54 METAR KSBY 161554Z 00000KT 10SM CLR 04/02 A3046 RMK AO2 SLP317 T00440017 $ =
2018-01-16 09:54 METAR KSBY 161454Z 00000KT 6SM BR CLR 01/M01 A3048 RMK AO2 SLP323 T00111006
                 50002 =
2018-01-16 08:54 METAR KSBY 161354Z 34004KT 4SM BR CLR M01/M03 A3048 RMK AO2 SLP324 T10111028 =

Support USWX by starting your Amazon purchase here.